createdAt,value
2023-04-14T00:02:13.151Z,7.50
2023-04-14T00:04:40.180Z,7.50
2023-04-14T00:07:07.058Z,7.50
2023-04-14T00:09:33.975Z,7.50
2023-04-14T00:12:01.265Z,7.40
2023-04-14T00:14:28.212Z,7.40
2023-04-14T00:16:55.088Z,7.40
2023-04-14T00:19:22.048Z,7.40
2023-04-14T00:21:48.922Z,7.30
2023-04-14T00:24:15.745Z,7.30
2023-04-14T00:26:42.730Z,7.30
2023-04-14T00:29:10.076Z,7.30
2023-04-14T00:31:37.073Z,7.30
2023-04-14T00:34:04.551Z,7.30
2023-04-14T00:36:32.339Z,7.30
2023-04-14T00:39:00.523Z,7.30
2023-04-14T00:41:32.662Z,7.30
2023-04-14T00:43:59.551Z,7.20
2023-04-14T00:46:26.703Z,7.20
2023-04-14T00:48:55.859Z,7.20
2023-04-14T00:51:23.724Z,7.10
2023-04-14T00:53:53.637Z,7.10
2023-04-14T00:56:21.365Z,7.10
2023-04-14T00:58:48.631Z,7.00
2023-04-14T01:01:16.105Z,7.00
2023-04-14T01:03:44.481Z,6.90
2023-04-14T01:06:11.815Z,6.80
2023-04-14T01:08:39.004Z,6.80
2023-04-14T01:11:05.930Z,6.80
2023-04-14T01:13:42.617Z,6.80
2023-04-14T01:16:23.265Z,6.80
2023-04-14T01:19:11.942Z,6.70
2023-04-14T01:21:43.921Z,6.60
2023-04-14T01:24:16.803Z,6.40
2023-04-14T01:26:45.525Z,6.30
2023-04-14T01:29:34.245Z,6.20
2023-04-14T01:32:05.860Z,6.20
2023-04-14T01:34:47.294Z,6.10
2023-04-14T01:37:17.960Z,6.10
2023-04-14T01:39:52.937Z,6.00
2023-04-14T01:42:25.142Z,6.00
2023-04-14T01:44:58.924Z,6.00
2023-04-14T01:47:26.782Z,6.00
2023-04-14T01:49:55.740Z,6.00
2023-04-14T01:52:23.216Z,6.10
2023-04-14T01:54:53.437Z,6.20
2023-04-14T01:57:23.020Z,6.30
2023-04-14T01:59:55.231Z,6.20
2023-04-14T02:02:26.072Z,6.20
2023-04-14T02:04:53.833Z,6.10
2023-04-14T02:07:22.100Z,6.10
2023-04-14T02:09:50.958Z,6.10
2023-04-14T02:12:20.712Z,6.10
2023-04-14T02:14:49.066Z,6.20
2023-04-14T02:17:19.482Z,6.20
2023-04-14T02:19:47.683Z,6.20
2023-04-14T02:22:14.735Z,6.20
2023-04-14T02:24:41.822Z,6.20
2023-04-14T02:27:18.909Z,6.20
2023-04-14T02:29:51.765Z,6.20
2023-04-14T02:32:25.020Z,6.30
2023-04-14T02:35:14.913Z,6.20
2023-04-14T02:37:44.551Z,6.20
2023-04-14T02:40:26.658Z,6.20
2023-04-14T02:43:01.560Z,6.20
2023-04-14T02:45:32.693Z,6.20
2023-04-14T02:48:03.758Z,6.10
2023-04-14T02:50:32.649Z,6.10
2023-04-14T02:53:01.107Z,6.20
2023-04-14T02:55:28.681Z,6.20
2023-04-14T02:57:56.496Z,6.10
2023-04-14T03:00:24.381Z,6.10
2023-04-14T03:02:53.939Z,6.20
2023-04-14T03:05:21.904Z,6.10
2023-04-14T03:07:52.800Z,6.00
2023-04-14T03:10:21.515Z,6.00
2023-04-14T03:12:50.798Z,6.00
2023-04-14T03:15:18.785Z,6.00
2023-04-14T03:17:52.832Z,6.00
2023-04-14T03:20:22.268Z,5.80
2023-04-14T03:23:06.373Z,5.80
2023-04-14T03:25:38.596Z,5.80
2023-04-14T03:28:09.886Z,5.80
2023-04-14T03:30:42.026Z,5.80
2023-04-14T03:33:12.581Z,5.80
2023-04-14T03:35:40.843Z,5.70
2023-04-14T03:38:11.212Z,5.70
2023-04-14T03:40:41.335Z,5.60
2023-04-14T03:43:13.320Z,5.60
2023-04-14T03:45:40.779Z,5.60
2023-04-14T03:48:11.931Z,5.60
2023-04-14T03:50:42.546Z,5.50
2023-04-14T03:53:16.416Z,5.50
2023-04-14T03:55:45.581Z,5.60
2023-04-14T03:58:14.185Z,5.60
2023-04-14T04:00:42.095Z,5.60
2023-04-14T04:03:10.824Z,5.60
2023-04-14T04:05:41.057Z,5.50
2023-04-14T04:08:09.446Z,5.60
2023-04-14T04:10:37.940Z,5.50
2023-04-14T04:13:11.346Z,5.30
2023-04-14T04:15:39.895Z,5.20
2023-04-14T04:18:08.877Z,5.10
2023-04-14T04:20:38.808Z,5.00
2023-04-14T04:23:08.743Z,5.00
2023-04-14T04:25:40.899Z,5.00
2023-04-14T04:28:08.057Z,4.90
2023-04-14T04:30:39.664Z,4.90
2023-04-14T04:33:07.918Z,4.90
2023-04-14T04:35:36.176Z,4.90
2023-04-14T04:38:04.007Z,4.90
2023-04-14T04:40:37.558Z,4.90
2023-04-14T04:43:05.289Z,4.90
2023-04-14T04:45:52.409Z,4.90
2023-04-14T04:48:19.349Z,4.80
2023-04-14T04:50:46.099Z,4.70
2023-04-14T04:53:13.014Z,4.70
2023-04-14T04:55:42.105Z,4.70
2023-04-14T04:58:09.670Z,4.70
2023-04-14T05:00:36.647Z,4.70
2023-04-14T05:03:04.283Z,4.70
2023-04-14T05:05:36.116Z,4.70
2023-04-14T05:08:03.356Z,4.70
2023-04-14T05:10:30.189Z,4.70
2023-04-14T05:12:57.044Z,4.80
2023-04-14T05:15:23.870Z,4.90
2023-04-14T05:17:51.274Z,5.10
2023-04-14T05:20:18.178Z,5.70
2023-04-14T05:22:45.030Z,5.90
2023-04-14T05:25:11.915Z,5.90
2023-04-14T05:27:38.750Z,6.10
2023-04-14T05:30:06.304Z,6.30
2023-04-14T05:32:33.498Z,5.60
2023-04-14T05:35:00.640Z,5.60
2023-04-14T05:37:30.093Z,5.60
2023-04-14T05:39:57.020Z,5.50
2023-04-14T05:42:23.889Z,5.40
2023-04-14T05:44:50.760Z,5.70
2023-04-14T05:47:17.704Z,5.60
2023-04-14T05:49:44.544Z,5.60
2023-04-14T05:52:11.370Z,5.70
2023-04-14T05:54:38.297Z,5.70
2023-04-14T05:57:05.670Z,5.60
2023-04-14T05:59:32.495Z,5.50
2023-04-14T06:01:59.991Z,5.70
2023-04-14T06:04:27.094Z,5.70
2023-04-14T06:06:53.970Z,5.80
2023-04-14T06:09:21.640Z,6.00
2023-04-14T06:11:48.550Z,6.10
2023-04-14T06:14:15.721Z,6.10
2023-04-14T06:16:42.662Z,6.10
2023-04-14T06:19:09.759Z,6.30
2023-04-14T06:21:36.658Z,6.50
2023-04-14T06:24:03.604Z,6.50
2023-04-14T06:26:31.411Z,6.60
2023-04-14T06:28:59.405Z,6.80
2023-04-14T06:31:26.627Z,6.80
2023-04-14T06:33:53.637Z,6.70
2023-04-14T06:36:20.469Z,6.80
2023-04-14T06:38:47.294Z,6.80
2023-04-14T06:41:14.156Z,6.80
2023-04-14T06:43:42.742Z,6.90
2023-04-14T06:46:09.737Z,7.00
2023-04-14T06:48:36.697Z,7.20
2023-04-14T06:51:03.970Z,7.20
2023-04-14T06:53:30.966Z,7.20
2023-04-14T06:56:01.044Z,7.30
2023-04-14T06:58:31.789Z,7.30
2023-04-14T07:00:59.928Z,7.50
2023-04-14T07:03:27.911Z,7.50
2023-04-14T07:05:55.051Z,7.50
2023-04-14T07:08:21.944Z,7.60
2023-04-14T07:10:48.776Z,7.50
2023-04-14T07:13:15.719Z,7.60
2023-04-14T07:15:47.717Z,7.70
2023-04-14T07:18:15.231Z,7.70
2023-04-14T07:20:42.283Z,7.90
2023-04-14T07:23:09.424Z,8.10
2023-04-14T07:25:39.500Z,8.10
2023-04-14T07:28:06.392Z,8.30
2023-04-14T07:30:33.858Z,8.60
2023-04-14T07:33:04.455Z,8.70
2023-04-14T07:35:31.443Z,8.60
2023-04-14T07:37:58.283Z,8.90
2023-04-14T07:40:25.336Z,8.80
2023-04-14T07:42:52.302Z,8.90
2023-04-14T07:45:19.145Z,9.10
2023-04-14T07:47:46.237Z,9.30
2023-04-14T07:50:13.147Z,9.30
2023-04-14T07:52:39.986Z,9.40
2023-04-14T07:55:07.216Z,9.60
2023-04-14T07:57:34.748Z,9.50
2023-04-14T08:00:01.630Z,9.60
2023-04-14T08:02:28.711Z,9.80
2023-04-14T08:04:56.178Z,9.70
2023-04-14T08:07:23.024Z,10.10
2023-04-14T08:09:51.076Z,10.10
2023-04-14T08:12:18.033Z,10.10
2023-04-14T08:14:44.914Z,10.20
2023-04-14T08:17:11.785Z,10.40
2023-04-14T08:19:38.782Z,10.40
2023-04-14T08:22:05.904Z,10.50
2023-04-14T08:24:33.015Z,10.40
2023-04-14T08:27:02.039Z,10.50
2023-04-14T08:29:28.897Z,10.80
2023-04-14T08:31:55.817Z,10.80
2023-04-14T08:34:28.579Z,10.80
2023-04-14T08:36:56.590Z,10.90
2023-04-14T08:39:23.488Z,10.90
2023-04-14T08:41:52.944Z,11.30
2023-04-14T08:44:19.838Z,11.40
2023-04-14T08:46:50.987Z,11.20
2023-04-14T08:49:30.050Z,11.50
2023-04-14T08:52:02.265Z,11.50
2023-04-14T08:54:29.888Z,11.50
2023-04-14T08:56:59.405Z,11.60
2023-04-14T08:59:27.565Z,11.60
2023-04-14T09:01:56.515Z,11.80
2023-04-14T09:04:24.281Z,11.80
2023-04-14T09:06:52.487Z,12.00
2023-04-14T09:09:19.903Z,12.10
2023-04-14T09:11:48.411Z,12.50
2023-04-14T09:14:15.579Z,11.90
2023-04-14T09:16:42.604Z,12.50
2023-04-14T09:19:09.929Z,12.20
2023-04-14T09:21:52.034Z,12.50
2023-04-14T09:24:23.841Z,12.50
2023-04-14T09:26:54.711Z,12.10
2023-04-14T09:29:21.654Z,12.40
2023-04-14T09:31:48.516Z,12.60
2023-04-14T09:34:19.880Z,12.70
2023-04-14T09:37:07.545Z,13.00
2023-04-14T09:39:35.805Z,13.00
2023-04-14T09:42:04.288Z,12.70
2023-04-14T09:44:31.419Z,13.00
2023-04-14T09:47:04.001Z,13.10
2023-04-14T09:49:31.742Z,12.80
2023-04-14T09:52:09.257Z,13.00
2023-04-14T09:54:36.607Z,12.80
2023-04-14T09:57:04.243Z,12.70
2023-04-14T09:59:38.767Z,12.80
2023-04-14T10:02:07.584Z,13.00
2023-04-14T10:04:35.428Z,13.40
2023-04-14T10:07:04.332Z,13.30
2023-04-14T10:09:37.760Z,12.70
2023-04-14T10:12:12.666Z,12.80
2023-04-14T10:14:43.901Z,12.70
2023-04-14T10:17:11.391Z,12.70
2023-04-14T10:19:38.928Z,13.20
2023-04-14T10:22:06.925Z,13.00
2023-04-14T10:24:34.378Z,12.90
2023-04-14T10:27:04.898Z,13.20
2023-04-14T10:29:32.313Z,13.20
2023-04-14T10:32:07.490Z,13.60
2023-04-14T10:34:35.663Z,13.50
2023-04-14T10:37:16.054Z,13.70
2023-04-14T10:39:43.252Z,14.00
2023-04-14T10:42:10.316Z,14.00
2023-04-14T10:44:37.671Z,14.00
2023-04-14T10:47:07.787Z,14.00
2023-04-14T10:49:37.671Z,13.70
2023-04-14T10:52:11.816Z,14.00
2023-04-14T10:55:01.011Z,14.50
2023-04-14T10:57:29.602Z,14.40
2023-04-14T10:59:58.967Z,14.30
2023-04-14T11:02:32.087Z,14.40
2023-04-14T11:05:11.874Z,14.90
2023-04-14T11:07:45.466Z,14.70
2023-04-14T11:10:24.319Z,14.90
2023-04-14T11:13:00.747Z,15.20
2023-04-14T11:16:02.584Z,14.90
2023-04-14T11:18:37.705Z,14.50
2023-04-14T11:21:09.516Z,14.40
2023-04-14T11:23:38.801Z,14.80
2023-04-14T11:26:10.496Z,14.70
2023-04-14T11:28:42.493Z,14.80
2023-04-14T11:31:12.396Z,15.00
2023-04-14T11:33:42.253Z,14.90
2023-04-14T11:36:10.700Z,14.30
2023-04-14T11:38:41.140Z,14.30
2023-04-14T11:41:09.583Z,14.50
2023-04-14T11:43:38.288Z,15.00
2023-04-14T11:46:06.178Z,15.60
2023-04-14T11:48:33.189Z,15.20
2023-04-14T11:51:03.775Z,15.30
2023-04-14T11:53:31.165Z,15.20
2023-04-14T11:55:58.217Z,15.00
2023-04-14T11:58:27.269Z,14.70
2023-04-14T12:00:59.462Z,14.40
2023-04-14T12:06:18.304Z,15.00
2023-04-14T12:08:50.571Z,14.70
2023-04-14T12:11:17.732Z,14.80
2023-04-14T12:13:47.157Z,14.90
2023-04-14T12:16:15.797Z,15.10
2023-04-14T12:18:43.762Z,15.00
2023-04-14T12:21:12.109Z,14.90
2023-04-14T12:23:42.444Z,15.00
2023-04-14T12:26:12.664Z,15.00
2023-04-14T12:28:41.572Z,14.80
2023-04-14T12:31:09.919Z,14.60
2023-04-14T12:33:37.010Z,14.50
2023-04-14T12:36:13.706Z,14.80
2023-04-14T12:38:40.678Z,14.70
2023-04-14T12:41:07.695Z,15.20
2023-04-14T12:43:35.664Z,15.80
2023-04-14T12:46:03.977Z,16.00
2023-04-14T12:48:45.962Z,15.60
2023-04-14T12:51:15.199Z,15.80
2023-04-14T12:53:44.153Z,16.00
2023-04-14T12:56:16.544Z,15.90
2023-04-14T12:58:47.534Z,16.30
2023-04-14T13:01:17.274Z,16.00
2023-04-14T13:03:55.797Z,15.40
2023-04-14T13:06:24.108Z,15.40
2023-04-14T13:08:53.027Z,15.30
2023-04-14T13:11:21.231Z,15.50
2023-04-14T13:13:48.339Z,15.40
2023-04-14T13:16:17.766Z,15.20
2023-04-14T13:18:48.379Z,15.50
2023-04-14T13:21:15.900Z,15.50
2023-04-14T13:23:42.909Z,15.20
2023-04-14T13:26:10.042Z,15.10
2023-04-14T13:28:37.218Z,15.00
2023-04-14T13:31:04.323Z,15.30
2023-04-14T13:33:33.246Z,15.50
2023-04-14T13:36:02.349Z,15.30
2023-04-14T13:38:29.495Z,15.00
2023-04-14T13:40:56.294Z,15.10
2023-04-14T13:43:23.322Z,15.10
2023-04-14T13:45:50.547Z,15.00
2023-04-14T13:48:17.433Z,15.00
2023-04-14T13:50:44.380Z,15.00
2023-04-14T13:53:12.425Z,14.70
2023-04-14T13:55:39.456Z,14.80
2023-04-14T13:58:06.440Z,14.80
2023-04-14T14:00:33.405Z,14.80
2023-04-14T14:03:01.056Z,14.70
2023-04-14T14:05:28.188Z,14.60
2023-04-14T14:07:56.905Z,14.60
2023-04-14T14:10:23.937Z,14.60
2023-04-14T14:12:50.800Z,14.60
2023-04-14T14:15:18.030Z,14.50
2023-04-14T14:17:44.972Z,14.60
2023-04-14T14:20:12.035Z,14.70
2023-04-14T14:22:38.991Z,14.50
2023-04-14T14:25:18.420Z,14.50
2023-04-14T14:27:47.530Z,14.40
2023-04-14T14:30:14.587Z,14.50
2023-04-14T14:32:41.626Z,14.40
2023-04-14T14:35:08.924Z,14.70
2023-04-14T14:37:35.910Z,14.70
2023-04-14T14:40:03.554Z,14.60
2023-04-14T14:42:31.105Z,14.70
2023-04-14T14:44:58.324Z,15.00
2023-04-14T14:47:25.323Z,15.10
2023-04-14T14:49:59.694Z,15.10
2023-04-14T14:52:31.666Z,15.00
2023-04-14T14:54:58.721Z,15.20
2023-04-14T14:57:26.235Z,15.40
2023-04-14T14:59:53.466Z,15.60
2023-04-14T15:02:21.364Z,15.50
2023-04-14T15:04:48.865Z,15.10
2023-04-14T15:07:15.869Z,14.80
2023-04-14T15:09:42.916Z,14.70
2023-04-14T15:12:09.905Z,14.80
2023-04-14T15:14:36.777Z,14.70
2023-04-14T15:17:03.697Z,14.50
2023-04-14T15:19:30.565Z,14.30
2023-04-14T15:21:57.400Z,14.30
2023-04-14T15:24:24.341Z,14.40
2023-04-14T15:26:51.288Z,14.40
2023-04-14T15:29:19.468Z,14.30
2023-04-14T15:31:46.531Z,14.40
2023-04-14T15:34:13.492Z,14.50
2023-04-14T15:36:40.519Z,14.70
2023-04-14T15:39:07.821Z,15.20
2023-04-14T15:41:36.415Z,15.50
2023-04-14T15:44:03.501Z,15.70
2023-04-14T15:46:30.960Z,16.10
2023-04-14T15:48:58.972Z,15.80
2023-04-14T15:51:25.964Z,15.70
2023-04-14T15:53:52.794Z,15.70
2023-04-14T15:56:23.485Z,15.60
2023-04-14T15:58:51.015Z,15.30
2023-04-14T16:01:18.086Z,15.20
2023-04-14T16:03:45.231Z,15.30
2023-04-14T16:06:12.316Z,15.20
2023-04-14T16:08:39.371Z,15.10
2023-04-14T16:11:06.469Z,15.00
2023-04-14T16:13:33.587Z,15.00
2023-04-14T16:16:00.514Z,15.00
2023-04-14T16:18:27.697Z,15.00
2023-04-14T16:20:54.635Z,14.90
2023-04-14T16:23:22.048Z,15.10
2023-04-14T16:25:49.976Z,14.90
2023-04-14T16:28:16.937Z,15.10
2023-04-14T16:30:44.001Z,15.10
2023-04-14T16:33:11.125Z,15.30
2023-04-14T16:35:38.016Z,15.10
2023-04-14T16:38:08.501Z,15.10
2023-04-14T16:40:36.672Z,15.00
2023-04-14T16:43:04.508Z,15.20
2023-04-14T16:45:32.368Z,15.10
2023-04-14T16:47:59.430Z,15.40
2023-04-14T16:50:27.006Z,15.20
2023-04-14T16:52:54.260Z,15.20
2023-04-14T16:55:21.204Z,15.20
2023-04-14T16:57:48.058Z,15.10
2023-04-14T17:00:15.332Z,15.10
2023-04-14T17:02:42.744Z,14.90
2023-04-14T17:05:16.048Z,14.80
2023-04-14T17:07:43.828Z,14.80
2023-04-14T17:10:11.503Z,14.70
2023-04-14T17:12:38.979Z,14.70
2023-04-14T17:15:06.795Z,14.60
2023-04-14T17:17:34.027Z,14.60
2023-04-14T17:20:00.885Z,14.60
2023-04-14T17:22:27.977Z,14.60
2023-04-14T17:24:55.050Z,14.80
2023-04-14T17:27:22.392Z,15.20
2023-04-14T17:29:49.487Z,15.30
2023-04-14T17:32:18.479Z,15.40
2023-04-14T17:34:49.138Z,15.30
2023-04-14T17:37:16.560Z,15.20
2023-04-14T17:39:44.091Z,15.30
2023-04-14T17:42:12.187Z,15.40
2023-04-14T17:44:39.114Z,15.10
2023-04-14T17:47:13.100Z,14.70
2023-04-14T17:49:40.118Z,14.60
2023-04-14T17:52:07.861Z,14.40
2023-04-14T17:54:36.426Z,14.30
2023-04-14T17:57:07.472Z,14.20
2023-04-14T17:59:34.289Z,14.20
2023-04-14T18:02:01.360Z,14.20
2023-04-14T18:04:28.323Z,14.10
2023-04-14T18:06:56.689Z,14.00
2023-04-14T18:09:23.518Z,14.00
2023-04-14T18:11:50.462Z,13.90
2023-04-14T18:14:17.291Z,13.90
2023-04-14T18:16:44.217Z,13.80
2023-04-14T18:19:11.234Z,13.70
2023-04-14T18:21:38.249Z,13.60
2023-04-14T18:26:35.438Z,13.60
2023-04-14T18:29:02.643Z,13.60
2023-04-14T18:31:29.862Z,13.50
2023-04-14T18:34:04.542Z,13.50
2023-04-14T18:36:32.661Z,13.40
2023-04-14T18:39:00.801Z,13.40
2023-04-14T18:41:28.175Z,13.40
2023-04-14T18:43:55.084Z,13.40
2023-04-14T18:46:22.469Z,13.40
2023-04-14T18:48:49.478Z,13.40
2023-04-14T18:51:16.766Z,13.40
2023-04-14T18:53:45.263Z,13.40
2023-04-14T18:56:13.556Z,13.40
2023-04-14T18:58:40.369Z,13.40
2023-04-14T19:01:08.932Z,13.40
2023-04-14T19:03:36.745Z,13.40
2023-04-14T19:06:03.833Z,13.30
2023-04-14T19:08:30.704Z,13.30
2023-04-14T19:10:59.028Z,13.20
2023-04-14T19:13:26.204Z,13.20
2023-04-14T19:15:53.149Z,13.20
2023-04-14T19:18:20.427Z,13.20
2023-04-14T19:20:48.571Z,13.20
2023-04-14T19:23:15.533Z,13.20
2023-04-14T19:25:42.733Z,13.20
2023-04-14T19:28:16.564Z,13.10
2023-04-14T19:30:45.847Z,13.10
2023-04-14T19:33:13.062Z,13.10
2023-04-14T19:35:40.158Z,13.10
2023-04-14T19:38:07.838Z,13.10
2023-04-14T19:40:34.697Z,13.00
2023-04-14T19:43:01.970Z,12.90
2023-04-14T19:45:28.764Z,12.90
2023-04-14T19:47:55.751Z,12.80
2023-04-14T19:50:22.878Z,12.70
2023-04-14T19:52:52.019Z,12.50
2023-04-14T19:55:19.139Z,12.60
2023-04-14T19:57:47.086Z,12.50
2023-04-14T20:00:15.895Z,12.60
2023-04-14T20:02:43.016Z,12.60
2023-04-14T20:05:10.076Z,12.60
2023-04-14T20:07:37.163Z,12.60
2023-04-14T20:10:04.225Z,12.70
2023-04-14T20:12:31.190Z,12.70
2023-04-14T20:14:58.235Z,12.70
2023-04-14T20:17:27.362Z,12.60
2023-04-14T20:19:54.822Z,12.60
2023-04-14T20:22:21.662Z,12.60
2023-04-14T20:24:48.518Z,12.60
2023-04-14T20:27:15.357Z,12.60
2023-04-14T20:29:42.231Z,12.60
2023-04-14T20:32:09.741Z,12.50
2023-04-14T20:34:36.640Z,12.40
2023-04-14T20:37:03.592Z,12.50
2023-04-14T20:39:30.608Z,12.50
2023-04-14T20:41:57.461Z,12.40
2023-04-14T20:44:24.571Z,12.40
2023-04-14T20:46:52.086Z,12.40
2023-04-14T20:49:19.005Z,12.40
2023-04-14T20:51:46.833Z,12.40
2023-04-14T20:54:14.048Z,12.50
2023-04-14T20:56:40.936Z,12.50
2023-04-14T20:59:07.783Z,12.20
2023-04-14T21:01:34.737Z,12.20
2023-04-14T21:04:01.658Z,12.20
2023-04-14T21:08:55.703Z,12.10
2023-04-14T21:11:22.557Z,12.00
2023-04-14T21:15:30.014Z,12.00
2023-04-14T21:16:36.430Z,12.00
2023-04-14T21:19:04.338Z,11.80
2023-04-14T21:21:33.236Z,11.80
2023-04-14T21:24:00.383Z,11.70
2023-04-14T21:26:28.503Z,11.60
2023-04-14T21:28:56.087Z,11.70
2023-04-14T21:31:23.021Z,11.70
2023-04-14T21:33:49.844Z,11.60
2023-04-14T21:36:17.066Z,11.50
2023-04-14T21:38:44.116Z,11.40
2023-04-14T21:41:11.374Z,11.40
2023-04-14T21:43:38.832Z,11.40
2023-04-14T21:46:05.926Z,11.30
2023-04-14T21:48:32.868Z,11.30
2023-04-14T21:50:59.883Z,11.30
2023-04-14T21:53:27.317Z,11.30
2023-04-14T21:56:03.440Z,11.20
2023-04-14T21:58:37.923Z,11.20
2023-04-14T22:01:05.448Z,11.20
2023-04-14T22:03:33.778Z,11.10
2023-04-14T22:06:01.247Z,11.10
2023-04-14T22:08:28.283Z,11.10
2023-04-14T22:10:55.830Z,11.00
2023-04-14T22:13:22.739Z,10.90
2023-04-14T22:15:50.121Z,10.80
2023-04-14T22:18:17.429Z,10.80
2023-04-14T22:20:45.260Z,10.80
2023-04-14T22:23:13.341Z,10.70
2023-04-14T22:25:40.453Z,10.70
2023-04-14T22:28:07.637Z,10.70
2023-04-14T22:30:35.286Z,10.70
2023-04-14T22:33:02.526Z,10.80
2023-04-14T22:35:30.233Z,10.70
2023-04-14T22:37:57.296Z,10.60
2023-04-14T22:40:24.756Z,10.50
2023-04-14T22:42:51.792Z,10.50
2023-04-14T22:45:18.762Z,10.40
2023-04-14T22:47:45.997Z,10.50
2023-04-14T22:50:12.875Z,10.50
2023-04-14T22:52:39.735Z,10.50
2023-04-14T22:55:07.665Z,10.50
2023-04-14T22:57:34.677Z,10.50
2023-04-14T23:00:09.073Z,10.50
2023-04-14T23:02:36.717Z,10.60
2023-04-14T23:05:04.527Z,10.60
2023-04-14T23:07:31.717Z,10.60
2023-04-14T23:09:58.583Z,10.70
2023-04-14T23:12:25.614Z,10.80
2023-04-14T23:14:52.557Z,10.70
2023-04-14T23:17:19.564Z,10.70
2023-04-14T23:19:47.163Z,10.80
2023-04-14T23:22:14.589Z,10.80
2023-04-14T23:24:41.768Z,10.80
2023-04-14T23:27:08.629Z,10.70
2023-04-14T23:29:36.982Z,10.70
2023-04-14T23:32:09.154Z,10.70
2023-04-14T23:34:39.048Z,10.60
2023-04-14T23:37:06.751Z,10.50
2023-04-14T23:39:33.698Z,10.60
2023-04-14T23:42:00.780Z,10.50
2023-04-14T23:44:27.809Z,10.60
2023-04-14T23:46:55.669Z,10.60
2023-04-14T23:49:24.206Z,10.60
2023-04-14T23:52:01.084Z,10.60
2023-04-14T23:54:27.970Z,10.60
2023-04-14T23:56:54.857Z,10.60
2023-04-14T23:59:21.905Z,10.60
